Time;durP1;ratioP1;P1;durP2;ratioP2;P2;SDS_P1;SDS_P2;PMS_P1;PMS_P2;Temp;Humidity;BMP_temperature;BMP_pressure;BME280_temperature;BME280_humidity;BME280_pressure;Samples;Min_cycle;Max_cycle;Signal;HPM_P1;HPM_P2
2022/09/28 00:02:59;;;;;;;1.47;0.90;;;;;;;;;;5084953;28;20206;-81
2022/09/28 00:06:08;;;;;;;1.23;0.73;;;;;;;;;;5085244;28;20515;-80
2022/09/28 00:09:14;;;;;;;1.10;0.83;;;;;;;;;;5072624;28;20515;-80
2022/09/28 00:12:19;;;;;;;3.60;1.03;;;;;;;;;;5095576;28;20692;-80
2022/09/28 00:15:23;;;;;;;1.47;1.00;;;;;;;;;;5078603;28;20191;-80
2022/09/28 00:18:28;;;;;;;1.83;0.83;;;;;;;;;;5075112;28;20184;-79
2022/09/28 00:21:34;;;;;;;2.80;1.10;;;;;;;;;;5053328;28;20172;-79
2022/09/28 00:24:38;;;;;;;3.90;0.90;;;;;;;;;;5064777;28;20172;-78
2022/09/28 00:27:48;;;;;;;1.67;1.00;;;;;;;;;;5053187;28;20203;-78
2022/09/28 00:30:56;;;;;;;1.30;0.80;;;;;;;;;;5088380;28;20627;-78
2022/09/28 00:34:01;;;;;;;4.10;1.00;;;;;;;;;;5076950;28;20180;-80
2022/09/28 00:37:07;;;;;;;0.90;0.90;;;;;;;;;;5054312;28;20654;-79
2022/09/28 00:40:11;;;;;;;4.73;1.23;;;;;;;;;;5077337;28;20171;-79
2022/09/28 00:43:19;;;;;;;2.33;1.20;;;;;;;;;;5076901;28;20713;-79
2022/09/28 00:46:34;;;;;;;1.63;1.20;;;;;;;;;;5079977;28;20183;-80
2022/09/28 00:49:44;;;;;;;0.93;0.87;;;;;;;;;;5067899;28;20176;-81
2022/09/28 00:53:23;;;;;;;1.23;1.10;;;;;;;;;;5056541;28;20219;-81
2022/09/28 00:56:32;;;;;;;1.23;1.00;;;;;;;;;;5079722;28;20207;-80
2022/09/28 00:59:36;;;;;;;1.80;1.10;;;;;;;;;;5079582;28;20176;-80
2022/09/28 01:02:41;;;;;;;3.83;1.67;;;;;;;;;;5078944;28;20211;-80
2022/09/28 01:05:50;;;;;;;1.00;0.87;;;;;;;;;;5067218;28;20207;-81
2022/09/28 01:08:57;;;;;;;2.57;1.10;;;;;;;;;;5067293;28;20234;-80
2022/09/28 01:12:02;;;;;;;1.20;1.10;;;;;;;;;;5067820;28;20219;-79
2022/09/28 01:15:06;;;;;;;2.57;1.40;;;;;;;;;;5056317;28;20184;-81
2022/09/28 01:18:24;;;;;;;2.47;1.30;;;;;;;;;;5067607;28;20172;-81
2022/09/28 01:21:41;;;;;;;1.63;1.20;;;;;;;;;;5078314;28;20639;-80
2022/09/28 01:24:47;;;;;;;3.17;1.10;;;;;;;;;;5055920;28;20176;-81
2022/09/28 01:28:26;;;;;;;1.50;1.30;;;;;;;;;;5067123;28;20227;-82
2022/09/28 01:31:35;;;;;;;3.40;1.17;;;;;;;;;;5076373;28;20176;-81
2022/09/28 01:34:53;;;;;;;3.20;1.30;;;;;;;;;;5066924;28;20175;-81
2022/09/28 01:38:09;;;;;;;2.20;1.53;;;;;;;;;;5079332;28;20187;-81
2022/09/28 01:41:16;;;;;;;2.60;1.60;;;;;;;;;;5078744;28;20180;-81
2022/09/28 01:44:24;;;;;;;3.17;1.33;;;;;;;;;;5055238;28;20180;-81
2022/09/28 01:47:35;;;;;;;1.57;1.37;;;;;;;;;;5078405;28;20203;-80
2022/09/28 01:50:42;;;;;;;7.13;1.50;;;;;;;;;;5067568;28;20180;-80
2022/09/28 01:53:55;;;;;;;2.23;1.33;;;;;;;;;;5067079;28;20544;-80
2022/09/28 01:57:19;;;;;;;4.03;1.70;;;;;;;;;;5065285;28;20203;-81
2022/09/28 02:00:26;;;;;;;9.67;1.70;;;;;;;;;;5067059;28;20180;-80
2022/09/28 02:03:45;;;;;;;2.53;1.50;;;;;;;;;;5066320;28;20215;-81
2022/09/28 02:06:56;;;;;;;1.77;1.30;;;;;;;;;;5065892;28;20187;-80
2022/09/28 02:10:14;;;;;;;3.37;1.33;;;;;;;;;;5078740;28;20176;-81
2022/09/28 02:13:47;;;;;;;1.40;1.30;;;;;;;;;;5066092;28;20694;-81
2022/09/28 02:16:54;;;;;;;2.37;1.30;;;;;;;;;;5077300;28;20186;-81
2022/09/28 02:20:03;;;;;;;2.53;1.20;;;;;;;;;;5065646;28;20179;-81
2022/09/28 02:23:10;;;;;;;2.97;1.10;;;;;;;;;;5065683;28;20211;-81
2022/09/28 02:26:19;;;;;;;1.37;1.03;;;;;;;;;;5077302;28;20179;-81
2022/09/28 02:29:24;;;;;;;3.23;1.00;;;;;;;;;;5065927;28;20208;-81
2022/09/28 02:32:31;;;;;;;2.07;1.33;;;;;;;;;;5076929;28;20377;-81
2022/09/28 02:35:37;;;;;;;3.43;1.20;;;;;;;;;;5065269;28;20183;-82
2022/09/28 02:38:41;;;;;;;2.00;1.20;;;;;;;;;;5065453;28;20175;-82
2022/09/28 02:42:01;;;;;;;1.43;0.87;;;;;;;;;;5065372;28;20179;-81
2022/09/28 02:45:24;;;;;;;1.77;0.90;;;;;;;;;;5064392;28;20191;-82
2022/09/28 02:48:55;;;;;;;1.23;0.80;;;;;;;;;;5065055;28;20216;-82
2022/09/28 02:52:28;;;;;;;2.27;0.97;;;;;;;;;;5064638;28;20211;-81
2022/09/28 02:56:03;;;;;;;1.87;0.70;;;;;;;;;;5064919;28;20203;-82
2022/09/28 02:59:36;;;;;;;2.67;0.90;;;;;;;;;;5065428;28;20176;-81
2022/09/28 03:03:02;;;;;;;1.23;0.90;;;;;;;;;;5053293;28;20220;-82
2022/09/28 03:06:36;;;;;;;3.60;1.10;;;;;;;;;;5065107;28;20195;-78
2022/09/28 03:09:59;;;;;;;4.40;1.00;;;;;;;;;;5040726;28;20227;-78
2022/09/28 03:13:05;;;;;;;2.13;0.90;;;;;;;;;;5075862;28;20215;-78
2022/09/28 03:16:10;;;;;;;2.17;0.93;;;;;;;;;;5076602;28;20631;-77
2022/09/28 03:19:21;;;;;;;1.13;0.77;;;;;;;;;;5064107;28;20187;-78
2022/09/28 03:22:26;;;;;;;1.23;0.80;;;;;;;;;;5065109;28;20219;-78
2022/09/28 03:25:30;;;;;;;4.03;1.00;;;;;;;;;;5075728;28;20685;-77
2022/09/28 03:28:35;;;;;;;1.30;1.00;;;;;;;;;;5076468;28;20551;-78
2022/09/28 03:31:39;;;;;;;2.67;0.90;;;;;;;;;;5077512;28;20198;-82
2022/09/28 03:34:43;;;;;;;1.53;0.70;;;;;;;;;;5061056;28;20195;-82
2022/09/28 03:37:47;;;;;;;3.10;0.80;;;;;;;;;;5061262;28;20183;-82
2022/09/28 03:40:57;;;;;;;2.17;0.80;;;;;;;;;;5060688;28;20512;-82
2022/09/28 03:44:02;;;;;;;3.80;0.90;;;;;;;;;;5060906;28;20631;-81
2022/09/28 03:47:08;;;;;;;4.50;0.87;;;;;;;;;;5061487;28;20520;-82
2022/09/28 03:50:14;;;;;;;1.47;0.70;;;;;;;;;;5084616;28;20176;-82
2022/09/28 03:53:18;;;;;;;3.50;0.70;;;;;;;;;;5071042;28;20203;-82
2022/09/28 03:56:25;;;;;;;7.13;0.80;;;;;;;;;;5070036;28;20199;-82
2022/09/28 03:59:30;;;;;;;3.93;0.83;;;;;;;;;;5058120;28;20168;-82
2022/09/28 04:02:35;;;;;;;4.70;1.20;;;;;;;;;;5069447;28;20547;-82
2022/09/28 04:05:50;;;;;;;2.23;0.80;;;;;;;;;;5069002;28;20199;-81
2022/09/28 04:08:55;;;;;;;0.77;0.77;;;;;;;;;;5073315;28;20575;-81
2022/09/28 04:11:59;;;;;;;1.60;0.87;;;;;;;;;;5061507;28;20219;-80
2022/09/28 04:15:04;;;;;;;2.63;0.70;;;;;;;;;;5085489;28;20184;-79
2022/09/28 04:18:10;;;;;;;2.33;0.90;;;;;;;;;;5073700;28;20176;-79
2022/09/28 04:21:49;;;;;;;1.00;0.90;;;;;;;;;;5073559;28;20219;-80
2022/09/28 04:24:54;;;;;;;3.77;0.90;;;;;;;;;;5056904;28;20180;-81
2022/09/28 04:31:22;;;;;;;1.63;0.80;;;;;;;;;;5068265;28;20184;-80
2022/09/28 04:34:27;;;;;;;3.73;1.03;;;;;;;;;;5057111;28;20520;-80
2022/09/28 04:37:31;;;;;;;3.03;0.90;;;;;;;;;;5068067;28;20180;-80
2022/09/28 04:40:35;;;;;;;2.40;1.13;;;;;;;;;;5068218;28;20171;-81
2022/09/28 04:43:40;;;;;;;1.83;0.90;;;;;;;;;;5067718;28;20211;-81
2022/09/28 04:46:44;;;;;;;1.73;0.80;;;;;;;;;;5079441;28;20175;-80
2022/09/28 04:50:20;;;;;;;4.13;1.07;;;;;;;;;;5061263;28;20200;-80
2022/09/28 04:53:42;;;;;;;3.13;0.90;;;;;;;;;;5079906;28;20571;-80
2022/09/28 04:56:46;;;;;;;2.70;0.87;;;;;;;;;;5068167;28;20199;-80
2022/09/28 04:59:52;;;;;;;4.77;0.90;;;;;;;;;;5068019;28;20512;-81
2022/09/28 05:02:56;;;;;;;2.53;0.93;;;;;;;;;;5079562;28;20215;-80
2022/09/28 05:06:29;;;;;;;4.50;1.07;;;;;;;;;;5056620;28;20203;-80
2022/09/28 05:09:41;;;;;;;3.23;0.90;;;;;;;;;;5067610;28;20528;-81
2022/09/28 05:12:45;;;;;;;2.63;0.80;;;;;;;;;;5056147;28;20550;-81
2022/09/28 05:15:52;;;;;;;1.37;0.83;;;;;;;;;;5078584;28;20183;-81
2022/09/28 05:18:59;;;;;;;2.50;0.90;;;;;;;;;;5056182;28;20184;-81
2022/09/28 05:22:03;;;;;;;3.10;1.00;;;;;;;;;;5079446;28;20211;-80
2022/09/28 05:25:11;;;;;;;2.20;1.00;;;;;;;;;;5067521;28;20175;-80
2022/09/28 05:28:40;;;;;;;4.50;1.10;;;;;;;;;;5066388;28;20207;-80
2022/09/28 05:32:15;;;;;;;0.70;0.70;;;;;;;;;;5054719;28;20219;-81
2022/09/28 05:35:46;;;;;;;0.90;0.70;;;;;;;;;;5066848;28;20643;-81
2022/09/28 05:38:50;;;;;;;5.43;0.90;;;;;;;;;;5080765;28;20175;-82
2022/09/28 05:41:56;;;;;;;1.93;0.90;;;;;;;;;;5064362;28;20219;-81
2022/09/28 05:45:02;;;;;;;2.17;0.80;;;;;;;;;;5063633;28;20197;-80
2022/09/28 05:48:06;;;;;;;2.67;1.13;;;;;;;;;;5072831;28;20171;-81
2022/09/28 05:51:10;;;;;;;3.63;0.87;;;;;;;;;;5061139;28;20172;-80
2022/09/28 05:54:15;;;;;;;1.80;0.77;;;;;;;;;;5086726;28;20176;-81
2022/09/28 05:57:23;;;;;;;1.40;0.80;;;;;;;;;;5075890;28;20535;-81
2022/09/28 06:00:28;;;;;;;1.00;0.80;;;;;;;;;;5064158;28;20622;-81
2022/09/28 06:03:33;;;;;;;1.60;0.70;;;;;;;;;;5063297;28;20211;-81
2022/09/28 06:06:38;;;;;;;7.17;2.03;;;;;;;;;;5074726;28;20180;-81
2022/09/28 06:09:42;;;;;;;2.00;0.70;;;;;;;;;;5087467;28;20207;-81
2022/09/28 06:13:09;;;;;;;1.50;0.77;;;;;;;;;;5075691;28;20219;-81
2022/09/28 06:16:15;;;;;;;2.07;0.70;;;;;;;;;;5063093;28;20179;-81
2022/09/28 06:19:19;;;;;;;1.80;0.70;;;;;;;;;;5063439;28;20180;-81
2022/09/28 06:23:01;;;;;;;1.47;1.10;;;;;;;;;;5074269;28;20215;-82
2022/09/28 06:26:06;;;;;;;1.53;0.70;;;;;;;;;;5074445;28;20263;-81
2022/09/28 06:29:13;;;;;;;1.87;1.03;;;;;;;;;;5061636;28;20203;-81
2022/09/28 06:32:17;;;;;;;2.90;1.77;;;;;;;;;;5080899;28;20215;-81
2022/09/28 06:35:26;;;;;;;2.13;1.03;;;;;;;;;;5067994;28;20631;-82
2022/09/28 06:38:31;;;;;;;2.70;2.17;;;;;;;;;;5068289;28;20175;-82
2022/09/28 06:41:35;;;;;;;3.07;2.37;;;;;;;;;;5069384;28;20249;-81
2022/09/28 06:44:50;;;;;;;3.50;2.03;;;;;;;;;;5067454;28;20184;-82
2022/09/28 06:48:16;;;;;;;3.13;1.90;;;;;;;;;;5071278;28;20179;-80
2022/09/28 06:51:20;;;;;;;1.67;1.50;;;;;;;;;;5067868;28;20176;-81
2022/09/28 06:54:33;;;;;;;8.50;6.90;;;;;;;;;;5079531;28;20180;-81
2022/09/28 06:58:06;;;;;;;3.23;2.93;;;;;;;;;;5056085;28;20172;-80
2022/09/28 07:01:10;;;;;;;2.37;1.23;;;;;;;;;;5075700;28;20191;-81
2022/09/28 07:04:32;;;;;;;2.50;2.17;;;;;;;;;;5056862;28;20183;-81
2022/09/28 07:07:48;;;;;;;1.43;1.10;;;;;;;;;;5079071;28;20179;-81
2022/09/28 07:11:12;;;;;;;1.50;1.40;;;;;;;;;;5081421;28;20171;-82
2022/09/28 07:14:33;;;;;;;6.43;2.50;;;;;;;;;;5060422;28;20180;-81
2022/09/28 07:17:37;;;;;;;2.97;1.70;;;;;;;;;;5067964;28;20179;-82
2022/09/28 07:20:41;;;;;;;1.20;1.10;;;;;;;;;;5055781;28;20176;-81
2022/09/28 07:23:47;;;;;;;1.80;1.23;;;;;;;;;;5080869;28;20206;-82
2022/09/28 07:27:11;;;;;;;2.80;1.00;;;;;;;;;;5083274;28;20180;-81
2022/09/28 07:30:49;;;;;;;1.30;1.00;;;;;;;;;;5061907;28;20310;-82
2022/09/28 07:34:17;;;;;;;1.70;1.13;;;;;;;;;;5078644;28;20179;-82
2022/09/28 07:38:03;;;;;;;3.57;1.20;;;;;;;;;;5079968;28;20627;-82
2022/09/28 07:41:11;;;;;;;1.40;1.30;;;;;;;;;;5056020;28;20180;-82
2022/09/28 07:44:20;;;;;;;1.47;1.20;;;;;;;;;;5057179;28;20179;-83
2022/09/28 07:47:26;;;;;;;2.00;1.80;;;;;;;;;;5056920;28;20180;-83
2022/09/28 07:50:58;;;;;;;1.77;1.60;;;;;;;;;;5060030;28;20203;-81
2022/09/28 07:54:41;;;;;;;0.93;0.80;;;;;;;;;;5080510;28;20619;-82
2022/09/28 07:58:21;;;;;;;1.90;1.70;;;;;;;;;;5013779;28;20541;-81
2022/09/28 08:01:58;;;;;;;2.10;1.20;;;;;;;;;;5077823;28;20219;-80
2022/09/28 08:05:03;;;;;;;1.80;1.20;;;;;;;;;;5067247;28;20179;-80
2022/09/28 08:08:09;;;;;;;3.87;1.00;;;;;;;;;;5067581;28;20199;-81
2022/09/28 08:11:15;;;;;;;0.50;0.50;;;;;;;;;;5080766;28;20207;-80
2022/09/28 08:14:40;;;;;;;1.70;0.50;;;;;;;;;;5072446;28;20188;-81
2022/09/28 08:18:07;;;;;;;0.60;0.50;;;;;;;;;;5072792;28;20183;-82
2022/09/28 08:24:34;;;;;;;1.10;0.50;;;;;;;;;;5068458;28;20184;-81
2022/09/28 08:27:38;;;;;;;0.90;0.80;;;;;;;;;;5055240;28;20179;-81
2022/09/28 08:30:44;;;;;;;0.30;0.30;;;;;;;;;;5077762;28;20211;-81
2022/09/28 08:34:12;;;;;;;3.63;3.03;;;;;;;;;;5060390;28;20202;-80
2022/09/28 08:37:35;;;;;;;1.37;1.27;;;;;;;;;;5066198;28;20179;-80
2022/09/28 08:41:17;;;;;;;1.20;1.00;;;;;;;;;;5072397;28;20195;-81
2022/09/28 08:44:44;;;;;;;2.70;0.80;;;;;;;;;;5079148;28;20191;-81
2022/09/28 08:51:57;;;;;;;0.60;0.60;;;;;;;;;;5066160;28;20207;-81
2022/09/28 08:55:26;;;;;;;2.90;2.70;;;;;;;;;;5068172;28;20184;-82
2022/09/28 08:58:34;;;;;;;1.10;1.00;;;;;;;;;;5079073;28;20199;-81
2022/09/28 09:02:02;;;;;;;1.23;0.90;;;;;;;;;;5079550;28;20512;-81
2022/09/28 09:05:13;;;;;;;1.23;0.63;;;;;;;;;;5058091;28;20179;-82
2022/09/28 09:09:17;;;;;;;2.20;1.10;;;;;;;;;;5072329;28;20176;-82
2022/09/28 09:12:25;;;;;;;1.10;0.83;;;;;;;;;;5083011;28;20224;-81
2022/09/28 09:15:37;;;;;;;1.53;0.93;;;;;;;;;;5083392;28;20618;-81
2022/09/28 09:18:54;;;;;;;1.20;1.10;;;;;;;;;;5059551;28;20191;-81
2022/09/28 09:22:33;;;;;;;5.03;1.50;;;;;;;;;;5058776;28;20218;-81
2022/09/28 09:25:53;;;;;;;1.53;1.00;;;;;;;;;;5056710;28;20188;-81
2022/09/28 09:29:32;;;;;;;1.77;1.03;;;;;;;;;;5055581;28;20188;-82
2022/09/28 09:32:52;;;;;;;1.37;1.00;;;;;;;;;;5065684;28;20223;-81
2022/09/28 09:36:06;;;;;;;0.90;0.77;;;;;;;;;;5065583;28;20180;-81
2022/09/28 09:39:44;;;;;;;2.10;0.80;;;;;;;;;;5058464;28;20638;-81
2022/09/28 09:43:07;;;;;;;1.27;0.37;;;;;;;;;;5077086;28;20219;-81
2022/09/28 09:46:36;;;;;;;0.90;0.67;;;;;;;;;;5077234;28;20183;-81
2022/09/28 09:50:06;;;;;;;1.00;0.83;;;;;;;;;;5076767;28;20207;-81
2022/09/28 09:53:30;;;;;;;1.03;0.70;;;;;;;;;;5066064;28;20223;-81
2022/09/28 09:56:58;;;;;;;1.10;0.60;;;;;;;;;;5067724;28;20207;-81
2022/09/28 10:00:22;;;;;;;2.30;0.70;;;;;;;;;;5070615;28;20196;-81
2022/09/28 10:03:42;;;;;;;1.67;0.80;;;;;;;;;;5058726;28;20219;-80
2022/09/28 10:07:00;;;;;;;2.97;1.90;;;;;;;;;;5078427;28;20623;-80
2022/09/28 10:10:19;;;;;;;0.87;0.40;;;;;;;;;;5066998;28;20203;-80
2022/09/28 10:13:31;;;;;;;2.07;0.60;;;;;;;;;;5055920;28;20219;-80
2022/09/28 10:16:37;;;;;;;0.97;0.60;;;;;;;;;;5055572;28;20179;-81
2022/09/28 10:19:46;;;;;;;1.73;0.80;;;;;;;;;;5066877;28;20168;-80
2022/09/28 10:23:25;;;;;;;1.07;0.50;;;;;;;;;;5078353;28;20215;-80
2022/09/28 10:26:37;;;;;;;1.27;0.83;;;;;;;;;;5055368;28;20176;-80
2022/09/28 10:29:56;;;;;;;2.67;0.70;;;;;;;;;;5066343;28;20666;-80
2022/09/28 10:33:01;;;;;;;1.00;0.70;;;;;;;;;;5054287;28;20211;-81
2022/09/28 10:36:09;;;;;;;1.33;0.70;;;;;;;;;;5065708;28;20180;-80
2022/09/28 10:39:36;;;;;;;0.87;0.70;;;;;;;;;;5054367;28;20179;-80
2022/09/28 10:42:40;;;;;;;2.27;0.80;;;;;;;;;;5065548;28;20223;-80
2022/09/28 10:45:44;;;;;;;1.50;0.70;;;;;;;;;;5065158;28;20171;-80
2022/09/28 10:49:02;;;;;;;1.17;0.60;;;;;;;;;;5051749;28;20539;-80
2022/09/28 10:52:30;;;;;;;1.90;0.93;;;;;;;;;;5064351;28;20211;-80
2022/09/28 10:55:35;;;;;;;1.80;0.80;;;;;;;;;;5053243;28;20207;-81
2022/09/28 10:58:40;;;;;;;1.20;0.73;;;;;;;;;;5076681;28;20631;-81
2022/09/28 11:02:18;;;;;;;1.40;0.60;;;;;;;;;;5055390;28;20211;-81
2022/09/28 11:05:28;;;;;;;0.93;0.80;;;;;;;;;;5052780;28;20516;-79
2022/09/28 11:08:40;;;;;;;2.50;0.80;;;;;;;;;;5075446;28;20176;-79
2022/09/28 11:11:46;;;;;;;2.90;0.70;;;;;;;;;;5064869;28;20208;-80
2022/09/28 11:15:00;;;;;;;2.47;0.80;;;;;;;;;;5064761;28;20180;-79
2022/09/28 11:18:24;;;;;;;2.17;1.00;;;;;;;;;;5064554;28;20195;-80
2022/09/28 11:21:33;;;;;;;1.60;0.83;;;;;;;;;;5064058;28;20619;-79
2022/09/28 11:24:40;;;;;;;1.63;1.00;;;;;;;;;;5064570;28;20180;-80
2022/09/28 11:27:50;;;;;;;3.70;0.87;;;;;;;;;;5064472;28;20179;-78
2022/09/28 11:30:54;;;;;;;3.10;0.67;;;;;;;;;;5053187;28;20207;-80
2022/09/28 11:34:25;;;;;;;1.40;0.80;;;;;;;;;;5064487;28;20191;-79
2022/09/28 11:38:13;;;;;;;2.13;1.00;;;;;;;;;;5076333;28;20183;-79
2022/09/28 11:42:04;;;;;;;1.23;0.80;;;;;;;;;;5068217;28;20593;-79
2022/09/28 11:45:28;;;;;;;2.20;0.90;;;;;;;;;;5064544;28;20508;-79
2022/09/28 11:48:43;;;;;;;1.07;0.60;;;;;;;;;;5065505;28;20179;-82
2022/09/28 11:51:49;;;;;;;3.50;0.80;;;;;;;;;;5064236;28;20207;-81
2022/09/28 11:55:00;;;;;;;3.43;0.97;;;;;;;;;;5064848;28;20631;-82
2022/09/28 11:58:25;;;;;;;2.53;1.20;;;;;;;;;;5052505;28;20628;-79
2022/09/28 12:01:44;;;;;;;1.87;0.67;;;;;;;;;;5065039;28;20180;-80
2022/09/28 12:05:06;;;;;;;0.90;0.60;;;;;;;;;;5054722;28;20185;-80
2022/09/28 12:08:30;;;;;;;7.23;2.67;;;;;;;;;;5076071;28;20187;-81
2022/09/28 12:11:44;;;;;;;16.63;8.33;;;;;;;;;;5076955;28;20211;-81
2022/09/28 12:15:01;;;;;;;10.93;6.07;;;;;;;;;;5088577;28;20191;-81
2022/09/28 12:18:13;;;;;;;2.07;1.30;;;;;;;;;;5076091;28;20196;-80
2022/09/28 12:21:24;;;;;;;1.30;1.20;;;;;;;;;;5077055;28;20171;-80
2022/09/28 12:24:49;;;;;;;1.83;1.10;;;;;;;;;;5053566;28;20629;-80
2022/09/28 12:28:07;;;;;;;4.37;2.67;;;;;;;;;;5075465;28;20533;-79
2022/09/28 12:31:36;;;;;;;3.33;1.40;;;;;;;;;;5074980;28;20215;-80
2022/09/28 12:34:41;;;;;;;2.47;1.60;;;;;;;;;;5052700;28;20167;-82
2022/09/28 12:38:07;;;;;;;2.67;1.60;;;;;;;;;;5086816;28;20195;-83
2022/09/28 12:41:49;;;;;;;1.40;1.10;;;;;;;;;;5077698;28;20180;-82
2022/09/28 12:45:26;;;;;;;22.43;14.20;;;;;;;;;;5079176;28;20524;-83
2022/09/28 12:49:05;;;;;;;44.87;33.50;;;;;;;;;;5066976;28;20190;-82
2022/09/28 12:52:46;;;;;;;17.83;15.97;;;;;;;;;;5068180;28;20239;-82
2022/09/28 12:56:05;;;;;;;38.80;26.73;;;;;;;;;;5067247;28;20681;-81
2022/09/28 12:59:25;;;;;;;13.83;10.30;;;;;;;;;;5067364;28;20186;-82
2022/09/28 13:02:53;;;;;;;19.27;7.70;;;;;;;;;;5067881;28;20219;-81
2022/09/28 13:06:18;;;;;;;13.87;6.33;;;;;;;;;;5068057;28;20191;-82
2022/09/28 13:09:22;;;;;;;18.70;9.17;;;;;;;;;;5056600;28;20648;-82
2022/09/28 13:12:38;;;;;;;27.27;13.63;;;;;;;;;;5079772;28;20234;-81
2022/09/28 13:16:16;;;;;;;19.57;9.30;;;;;;;;;;5067346;28;20199;-79
2022/09/28 13:19:49;;;;;;;31.40;14.23;;;;;;;;;;5079233;28;20172;-79
2022/09/28 13:23:19;;;;;;;57.07;22.93;;;;;;;;;;5079513;28;20234;-79
2022/09/28 13:26:28;;;;;;;79.97;33.70;;;;;;;;;;5067234;28;20179;-79
2022/09/28 13:29:33;;;;;;;111.37;43.53;;;;;;;;;;5066747;28;20543;-80
2022/09/28 13:32:40;;;;;;;9.07;4.33;;;;;;;;;;5078871;28;20234;-79
2022/09/28 13:35:44;;;;;;;3.47;1.60;;;;;;;;;;5066719;28;20179;-79
2022/09/28 13:38:49;;;;;;;3.20;1.60;;;;;;;;;;5088418;28;20183;-79
2022/09/28 13:41:54;;;;;;;4.33;1.70;;;;;;;;;;5076020;28;20219;-80
2022/09/28 13:45:25;;;;;;;2.07;1.20;;;;;;;;;;5077655;28;20627;-80
2022/09/28 13:48:47;;;;;;;2.60;1.40;;;;;;;;;;5078935;28;20516;-79
2022/09/28 13:51:57;;;;;;;2.63;1.40;;;;;;;;;;5089320;28;20563;-82
2022/09/28 13:55:27;;;;;;;3.60;1.33;;;;;;;;;;5067067;28;20183;-80
2022/09/28 13:58:41;;;;;;;4.00;1.70;;;;;;;;;;5057351;28;20179;-81
2022/09/28 14:02:02;;;;;;;4.13;1.60;;;;;;;;;;5079036;28;20176;-82
2022/09/28 14:05:21;;;;;;;3.50;1.80;;;;;;;;;;5067840;28;20616;-81
2022/09/28 14:08:28;;;;;;;2.33;1.50;;;;;;;;;;5079271;28;20176;-81
2022/09/28 14:11:35;;;;;;;4.13;1.80;;;;;;;;;;5055789;28;20208;-81
2022/09/28 14:14:45;;;;;;;3.90;1.90;;;;;;;;;;5067445;28;20179;-79
2022/09/28 14:17:57;;;;;;;5.50;1.43;;;;;;;;;;5078323;28;20520;-79
2022/09/28 14:21:01;;;;;;;2.47;1.20;;;;;;;;;;5078236;28;20184;-80
2022/09/28 14:24:12;;;;;;;3.60;1.67;;;;;;;;;;5096224;28;20194;-79
2022/09/28 14:27:16;;;;;;;3.03;2.00;;;;;;;;;;5075411;28;20202;-79
2022/09/28 14:30:24;;;;;;;4.70;1.43;;;;;;;;;;5098271;28;20199;-78
2022/09/28 14:33:31;;;;;;;1.97;1.50;;;;;;;;;;5086919;28;20211;-79
2022/09/28 14:43:43;;;;;;;2.03;1.60;;;;;;;;;;5099119;28;20214;-82
2022/09/28 14:46:48;;;;;;;2.77;1.70;;;;;;;;;;5075662;28;20183;-80
2022/09/28 14:50:00;;;;;;;4.50;1.70;;;;;;;;;;5099778;28;20187;-80
2022/09/28 14:53:13;;;;;;;2.30;1.83;;;;;;;;;;5076017;28;20218;-82
2022/09/28 14:56:19;;;;;;;3.40;2.10;;;;;;;;;;5077510;28;20198;-82
2022/09/28 14:59:39;;;;;;;5.60;2.53;;;;;;;;;;5088840;28;20183;-82
2022/09/28 15:02:50;;;;;;;8.70;3.37;;;;;;;;;;5088883;28;20693;-82
2022/09/28 15:05:54;;;;;;;6.57;1.90;;;;;;;;;;5089305;28;20179;-82
2022/09/28 15:08:58;;;;;;;3.33;2.27;;;;;;;;;;5078907;28;20182;-81
2022/09/28 15:12:27;;;;;;;2.00;1.80;;;;;;;;;;5077222;28;20227;-81
2022/09/28 15:15:39;;;;;;;2.70;1.60;;;;;;;;;;5100482;28;20182;-81
2022/09/28 15:19:03;;;;;;;2.17;1.50;;;;;;;;;;5101375;28;20178;-81
2022/09/28 15:22:18;;;;;;;5.40;1.97;;;;;;;;;;5088466;28;20211;-81
2022/09/28 15:25:26;;;;;;;3.80;2.20;;;;;;;;;;5098639;28;20179;-80
2022/09/28 15:28:34;;;;;;;4.03;2.07;;;;;;;;;;5097782;28;20186;-80
2022/09/28 15:31:38;;;;;;;4.27;2.27;;;;;;;;;;5098426;28;20547;-81
2022/09/28 15:34:53;;;;;;;3.00;2.00;;;;;;;;;;5104415;28;20198;-82
2022/09/28 15:37:57;;;;;;;5.17;2.20;;;;;;;;;;5089947;28;20171;-80
2022/09/28 15:41:04;;;;;;;4.63;2.13;;;;;;;;;;5089961;28;20175;-82
2022/09/28 15:44:11;;;;;;;4.27;2.40;;;;;;;;;;5087869;28;20619;-81
2022/09/28 15:47:25;;;;;;;4.60;2.13;;;;;;;;;;5073886;28;20170;-81
2022/09/28 15:50:30;;;;;;;3.73;2.37;;;;;;;;;;5075291;28;20179;-81
2022/09/28 15:53:39;;;;;;;2.50;2.30;;;;;;;;;;5101412;28;20573;-81
2022/09/28 15:56:58;;;;;;;3.53;2.90;;;;;;;;;;5083917;28;20198;-81
2022/09/28 16:00:27;;;;;;;5.23;3.37;;;;;;;;;;5106914;28;20183;-83
2022/09/28 16:03:31;;;;;;;3.67;2.60;;;;;;;;;;5106907;28;20713;-81
2022/09/28 16:06:35;;;;;;;3.03;2.67;;;;;;;;;;5095387;28;20179;-82
2022/09/28 16:10:11;;;;;;;3.90;3.00;;;;;;;;;;5107440;28;20187;-81
2022/09/28 16:13:18;;;;;;;5.57;3.50;;;;;;;;;;5080929;28;20222;-81
2022/09/28 16:16:41;;;;;;;4.00;2.83;;;;;;;;;;5106240;28;20198;-81
2022/09/28 16:19:48;;;;;;;5.87;2.70;;;;;;;;;;5105888;28;20183;-79
2022/09/28 16:22:54;;;;;;;14.53;13.03;;;;;;;;;;5104624;28;20689;-80
2022/09/28 16:26:10;;;;;;;20.27;18.23;;;;;;;;;;5103473;28;20190;-81
2022/09/28 16:29:37;;;;;;;15.93;14.47;;;;;;;;;;5078716;28;20645;-82
2022/09/28 16:32:48;;;;;;;7.13;6.50;;;;;;;;;;5079517;28;20253;-82
2022/09/28 16:35:52;;;;;;;5.67;3.90;;;;;;;;;;5077858;28;20190;-81
2022/09/28 16:38:56;;;;;;;3.90;2.80;;;;;;;;;;5090260;28;20530;-82
2022/09/28 16:42:13;;;;;;;6.23;2.93;;;;;;;;;;5078936;28;20658;-81
2022/09/28 16:45:24;;;;;;;4.93;4.43;;;;;;;;;;5078133;28;20183;-81
2022/09/28 16:48:33;;;;;;;34.37;26.07;;;;;;;;;;5108192;28;20183;-80
2022/09/28 16:51:38;;;;;;;65.80;45.03;;;;;;;;;;5120850;28;20185;-83
2022/09/28 16:58:06;;;;;;;11.77;9.27;;;;;;;;;;5094834;28;20178;-85
2022/09/28 17:01:11;;;;;;;9.13;5.53;;;;;;;;;;5082033;28;20539;-84
2022/09/28 17:04:15;;;;;;;7.77;4.23;;;;;;;;;;5092484;28;20171;-83
2022/09/28 17:07:19;;;;;;;7.33;4.27;;;;;;;;;;5092398;28;20195;-84
2022/09/28 17:10:44;;;;;;;5.00;4.00;;;;;;;;;;5097113;28;20178;-84
2022/09/28 17:13:48;;;;;;;8.07;6.40;;;;;;;;;;5100289;28;20222;-83
2022/09/28 17:16:52;;;;;;;9.60;8.60;;;;;;;;;;5086084;28;20191;-82
2022/09/28 17:19:57;;;;;;;8.80;5.17;;;;;;;;;;5086062;28;20175;-82
2022/09/28 17:23:01;;;;;;;11.63;6.03;;;;;;;;;;5097981;28;20210;-82
2022/09/28 17:26:07;;;;;;;9.97;7.40;;;;;;;;;;5086397;28;20179;-85
2022/09/28 17:29:13;;;;;;;14.10;7.80;;;;;;;;;;5090419;28;20175;-81
2022/09/28 17:32:18;;;;;;;44.57;37.00;;;;;;;;;;5100694;28;20697;-80
2022/09/28 17:35:22;;;;;;;23.47;18.63;;;;;;;;;;5088894;28;20183;-81
2022/09/28 17:38:26;;;;;;;10.10;7.90;;;;;;;;;;5089769;28;20183;-81
2022/09/28 17:41:31;;;;;;;7.37;5.70;;;;;;;;;;5100899;28;20535;-82
2022/09/28 17:44:35;;;;;;;8.47;4.90;;;;;;;;;;5076362;28;20171;-82
2022/09/28 17:47:39;;;;;;;10.47;4.63;;;;;;;;;;5075378;28;20194;-82
2022/09/28 17:50:46;;;;;;;6.03;3.33;;;;;;;;;;5086411;28;20199;-81
2022/09/28 17:53:51;;;;;;;9.87;7.47;;;;;;;;;;5077755;28;20543;-80
2022/09/28 17:56:55;;;;;;;16.67;14.20;;;;;;;;;;5103370;28;20202;-81
2022/09/28 18:00:00;;;;;;;22.30;18.53;;;;;;;;;;5081370;28;20175;-80
2022/09/28 18:03:09;;;;;;;14.80;11.60;;;;;;;;;;5092029;28;20217;-82
2022/09/28 18:06:18;;;;;;;11.83;9.37;;;;;;;;;;5080970;28;20193;-81
2022/09/28 18:09:23;;;;;;;10.47;7.50;;;;;;;;;;5101378;28;20179;-81
2022/09/28 18:12:28;;;;;;;8.83;6.27;;;;;;;;;;5088012;28;20559;-81
2022/09/28 18:15:32;;;;;;;7.47;4.53;;;;;;;;;;5089139;28;20510;-81
2022/09/28 18:18:38;;;;;;;5.00;4.30;;;;;;;;;;5092294;28;20565;-81
2022/09/28 18:21:42;;;;;;;4.93;3.30;;;;;;;;;;5058835;28;20176;-81
2022/09/28 18:24:46;;;;;;;5.80;3.73;;;;;;;;;;5056286;28;20536;-81
2022/09/28 18:27:56;;;;;;;4.77;3.43;;;;;;;;;;5079815;28;20180;-82
2022/09/28 18:31:06;;;;;;;10.20;6.03;;;;;;;;;;5069373;28;20207;-81
2022/09/28 18:34:12;;;;;;;12.97;7.60;;;;;;;;;;5058582;28;20204;-81
2022/09/28 18:37:17;;;;;;;11.03;5.90;;;;;;;;;;5067089;28;20183;-83
2022/09/28 18:40:22;;;;;;;9.17;6.37;;;;;;;;;;5081319;28;20175;-84
2022/09/28 18:43:26;;;;;;;8.97;6.33;;;;;;;;;;5061977;28;20215;-81
2022/09/28 18:46:35;;;;;;;14.27;7.87;;;;;;;;;;5073219;28;20183;-80
2022/09/28 18:49:40;;;;;;;11.63;7.47;;;;;;;;;;5085197;28;20180;-80
2022/09/28 18:52:46;;;;;;;10.83;7.00;;;;;;;;;;5082451;28;20698;-79
2022/09/28 18:55:50;;;;;;;11.00;6.63;;;;;;;;;;5058365;28;20198;-82
2022/09/28 18:58:55;;;;;;;10.97;4.90;;;;;;;;;;5067536;28;20184;-82
2022/09/28 19:02:00;;;;;;;6.60;4.27;;;;;;;;;;5065114;28;20547;-82
2022/09/28 19:05:05;;;;;;;6.07;4.47;;;;;;;;;;5052447;28;20191;-82
2022/09/28 19:08:09;;;;;;;7.17;4.43;;;;;;;;;;5083066;28;20520;-79
2022/09/28 19:11:15;;;;;;;12.20;5.47;;;;;;;;;;5073182;28;20515;-80
2022/09/28 19:14:19;;;;;;;7.87;4.60;;;;;;;;;;5074179;28;20211;-81
2022/09/28 19:17:23;;;;;;;4.70;3.80;;;;;;;;;;5083588;28;20187;-80
2022/09/28 19:20:27;;;;;;;4.90;3.40;;;;;;;;;;5072765;28;20195;-80
2022/09/28 19:23:32;;;;;;;6.50;3.73;;;;;;;;;;5059911;28;20215;-81
2022/09/28 19:26:36;;;;;;;6.93;3.73;;;;;;;;;;5060083;28;20180;-81
2022/09/28 19:29:40;;;;;;;5.33;3.43;;;;;;;;;;5074205;28;20188;-81
2022/09/28 19:32:45;;;;;;;4.23;3.50;;;;;;;;;;5059615;28;20227;-81
2022/09/28 19:36:00;;;;;;;7.37;3.60;;;;;;;;;;5084453;28;20179;-79
2022/09/28 19:39:06;;;;;;;4.53;3.13;;;;;;;;;;5084535;28;20180;-79